Time;durP1;ratioP1;P1;durP2;ratioP2;P2;SDS_P1;SDS_P2;PMS_P1;PMS_P2;Temp;Humidity;BMP_temperature;BMP_pressure;BME280_temperature;BME280_humidity;BME280_pressure;Samples;Min_cycle;Max_cycle;Signal;HPM_P1;HPM_P2
2023/07/02 00:01:46;;;;;;;6.50;2.13;;;20.60;99.90;;;;;;5071854;28;45570;-67
2023/07/02 00:04:15;;;;;;;6.63;2.00;;;20.50;99.90;;;;;;5074766;28;48523;-66
2023/07/02 00:06:43;;;;;;;5.57;2.00;;;20.50;99.90;;;;;;5076125;28;45854;-66
2023/07/02 00:09:11;;;;;;;4.72;1.90;;;20.40;99.90;;;;;;5067157;28;45329;-65
2023/07/02 00:11:39;;;;;;;4.70;1.90;;;20.40;99.90;;;;;;5072884;28;45223;-68
2023/07/02 00:14:06;;;;;;;4.45;1.80;;;20.40;99.90;;;;;;5072978;28;45479;-68
2023/07/02 00:16:33;;;;;;;9.60;2.33;;;20.40;99.90;;;;;;5073811;28;45379;-66
2023/07/02 00:19:00;;;;;;;7.32;2.55;;;20.40;99.90;;;;;;5068106;28;45258;-66
2023/07/02 00:21:27;;;;;;;9.93;3.08;;;20.50;99.90;;;;;;5063768;28;45343;-67
2023/07/02 00:23:56;;;;;;;8.60;3.30;;;20.50;99.90;;;;;;5063965;28;45635;-67
2023/07/02 00:26:25;;;;;;;9.65;3.17;;;20.40;99.90;;;;;;5071426;28;45529;-67
2023/07/02 00:28:52;;;;;;;12.13;3.70;;;20.30;99.90;;;;;;5075779;28;45332;-66
2023/07/02 00:31:18;;;;;;;10.25;3.70;;;20.20;99.90;;;;;;5077214;28;45306;-66
2023/07/02 00:33:45;;;;;;;10.70;4.28;;;20.20;99.90;;;;;;5080563;28;45356;-66
2023/07/02 00:36:14;;;;;;;10.88;4.10;;;20.40;99.90;;;;;;5073741;28;45864;-66
2023/07/02 00:38:42;;;;;;;10.57;4.20;;;20.30;99.90;;;;;;5075526;28;45530;-67
2023/07/02 00:41:08;;;;;;;9.35;4.28;;;20.40;99.90;;;;;;5075475;28;45553;-67
2023/07/02 00:43:39;;;;;;;10.70;4.35;;;20.30;99.90;;;;;;5067701;28;45343;-67
2023/07/02 00:46:06;;;;;;;10.45;4.40;;;20.30;99.90;;;;;;5080482;28;45317;-66
2023/07/02 00:48:33;;;;;;;17.23;4.28;;;20.30;99.90;;;;;;5074078;28;45319;-67
2023/07/02 00:51:00;;;;;;;12.07;4.10;;;20.30;99.90;;;;;;5077148;28;45278;-67
2023/07/02 00:53:27;;;;;;;14.43;4.55;;;20.30;99.90;;;;;;5071347;28;47558;-66
2023/07/02 00:55:54;;;;;;;12.88;4.32;;;20.30;99.90;;;;;;5063584;28;46219;-66
2023/07/02 00:58:21;;;;;;;10.65;3.95;;;20.40;99.90;;;;;;5071762;28;45395;-67
2023/07/02 01:00:49;;;;;;;12.27;4.10;;;20.40;99.90;;;;;;5061635;28;45483;-67
2023/07/02 01:03:16;;;;;;;12.40;5.00;;;20.50;99.90;;;;;;5063483;28;46308;-67
2023/07/02 01:05:43;;;;;;;13.77;4.75;;;20.40;99.90;;;;;;5070553;28;45541;-67
2023/07/02 01:08:10;;;;;;;12.85;4.75;;;20.30;99.90;;;;;;5074328;27;45370;-66
2023/07/02 01:10:37;;;;;;;10.45;5.22;;;20.30;99.90;;;;;;5075343;28;45281;-68
2023/07/02 01:13:09;;;;;;;13.43;4.80;;;20.30;99.90;;;;;;5077230;28;45370;-67
2023/07/02 01:15:37;;;;;;;11.02;4.93;;;20.30;99.90;;;;;;5071726;28;45390;-67
2023/07/02 01:18:06;;;;;;;15.18;4.80;;;20.30;99.90;;;;;;5063188;28;45287;-67
2023/07/02 01:20:36;;;;;;;11.43;5.00;;;20.20;99.90;;;;;;5070150;28;45267;-68
2023/07/02 01:23:04;;;;;;;8.68;4.38;;;20.10;99.90;;;;;;5070336;28;46380;-67
2023/07/02 01:25:31;;;;;;;12.73;5.35;;;20.10;99.90;;;;;;5073729;28;45330;-67
2023/07/02 01:27:58;;;;;;;21.83;5.40;;;20.10;99.90;;;;;;5067869;28;45340;-67
2023/07/02 01:30:26;;;;;;;10.65;5.22;;;20.10;99.90;;;;;;5080485;28;45488;-68
2023/07/02 01:32:53;;;;;;;13.48;5.38;;;20.10;99.90;;;;;;5070304;28;46580;-67
2023/07/02 01:35:20;;;;;;;16.05;5.57;;;20.10;99.90;;;;;;5074192;28;46124;-67
2023/07/02 01:37:48;;;;;;;12.90;5.45;;;20.10;99.90;;;;;;5063340;28;45561;-67
2023/07/02 01:40:15;;;;;;;18.13;5.65;;;20.00;99.90;;;;;;5067919;28;45551;-67
2023/07/02 01:42:41;;;;;;;18.30;6.10;;;20.10;99.90;;;;;;5081900;28;46409;-68
2023/07/02 01:45:09;;;;;;;20.05;6.10;;;20.00;99.90;;;;;;5066468;28;45223;-67
2023/07/02 01:47:36;;;;;;;12.25;6.20;;;20.00;99.90;;;;;;5066878;28;45291;-68
2023/07/02 01:50:06;;;;;;;14.07;6.00;;;20.00;99.90;;;;;;5067185;28;45494;-67
2023/07/02 01:52:33;;;;;;;14.75;5.97;;;19.90;99.90;;;;;;5074383;28;47697;-68
2023/07/02 01:55:02;;;;;;;13.80;6.53;;;19.80;99.90;;;;;;5076282;28;45368;-68
2023/07/02 01:57:30;;;;;;;12.20;6.25;;;19.90;99.90;;;;;;5065472;28;45572;-67
2023/07/02 01:59:57;;;;;;;16.58;6.68;;;19.80;99.90;;;;;;5072116;28;45274;-68
2023/07/02 02:02:24;;;;;;;20.13;7.82;;;19.80;99.90;;;;;;5063874;28;45446;-68
2023/07/02 02:04:50;;;;;;;17.55;7.63;;;19.80;99.90;;;;;;5062736;28;45439;-67
2023/07/02 02:07:17;;;;;;;18.70;6.68;;;19.70;99.90;;;;;;5074502;28;45464;-68
2023/07/02 02:09:44;;;;;;;14.38;6.55;;;19.70;99.90;;;;;;5079090;28;45432;-67
2023/07/02 02:12:14;;;;;;;17.30;7.10;;;19.80;99.90;;;;;;5067494;28;45306;-67
2023/07/02 02:14:41;;;;;;;20.02;7.22;;;19.90;99.90;;;;;;5074546;28;45474;-67
2023/07/02 02:17:07;;;;;;;14.50;7.07;;;19.90;99.90;;;;;;5074623;28;45490;-68
2023/07/02 02:19:34;;;;;;;22.33;8.38;;;19.90;99.90;;;;;;5064166;28;45669;-68
2023/07/02 02:22:01;;;;;;;24.58;8.02;;;19.70;99.90;;;;;;5072447;28;46574;-68
2023/07/02 02:24:28;;;;;;;19.45;7.90;;;19.60;99.90;;;;;;5067898;28;45532;-68
2023/07/02 02:26:54;;;;;;;16.48;8.00;;;19.50;99.90;;;;;;5061580;28;45441;-68
2023/07/02 02:29:22;;;;;;;21.63;7.65;;;19.50;99.90;;;;;;5066202;28;45391;-68
2023/07/02 02:31:49;;;;;;;23.38;7.70;;;19.50;99.90;;;;;;5066950;28;46864;-68
2023/07/02 02:34:16;;;;;;;19.25;8.20;;;19.60;99.90;;;;;;5079111;28;45368;-68
2023/07/02 02:36:43;;;;;;;23.13;8.60;;;19.50;99.90;;;;;;5062417;28;45418;-67
2023/07/02 02:39:10;;;;;;;19.10;8.40;;;19.50;99.90;;;;;;5069845;28;45411;-68
2023/07/02 02:41:37;;;;;;;19.60;8.13;;;19.50;99.90;;;;;;5066782;28;46713;-68
2023/07/02 02:44:04;;;;;;;18.90;8.63;;;19.50;99.90;;;;;;5071520;28;45261;-68
2023/07/02 02:46:32;;;;;;;21.92;8.07;;;19.40;99.90;;;;;;5066017;28;45377;-68
2023/07/02 02:48:59;;;;;;;20.02;8.73;;;19.40;99.90;;;;;;5073218;28;45239;-68
2023/07/02 02:51:25;;;;;;;22.25;8.32;;;19.50;99.90;;;;;;5066724;28;46593;-68
2023/07/02 02:53:52;;;;;;;22.83;8.73;;;19.40;99.90;;;;;;5069303;28;45432;-68
2023/07/02 02:56:19;;;;;;;17.73;8.45;;;19.40;99.90;;;;;;5067937;28;45309;-68
2023/07/02 02:58:46;;;;;;;26.50;9.82;;;19.60;99.90;;;;;;5064251;28;45283;-68
2023/07/02 03:01:13;;;;;;;21.27;10.48;;;19.40;99.90;;;;;;5075597;28;46445;-68
2023/07/02 03:03:44;;;;;;;18.10;8.65;;;19.50;99.90;;;;;;5074273;28;45562;-67
2023/07/02 03:06:11;;;;;;;19.75;8.70;;;19.50;99.90;;;;;;5080034;28;45409;-68
2023/07/02 03:08:38;;;;;;;27.52;10.30;;;19.50;99.90;;;;;;5077319;28;45292;-68
2023/07/02 03:11:05;;;;;;;21.98;8.98;;;19.50;99.90;;;;;;5078254;28;46536;-68
2023/07/02 03:13:32;;;;;;;20.35;9.05;;;19.50;99.90;;;;;;5069489;28;45423;-68
2023/07/02 03:15:58;;;;;;;23.88;9.38;;;19.50;99.90;;;;;;5079170;28;45487;-68
2023/07/02 03:18:25;;;;;;;19.25;9.10;;;19.40;99.90;;;;;;5083890;28;45478;-68
2023/07/02 03:20:53;;;;;;;26.23;10.57;;;19.40;99.90;;;;;;5071402;28;46336;-68
2023/07/02 03:23:20;;;;;;;21.77;10.15;;;19.40;99.70;;;;;;5080986;28;45313;-68
2023/07/02 03:25:47;;;;;;;24.67;9.18;;;19.40;99.90;;;;;;5069559;28;45349;-69
2023/07/02 03:28:13;;;;;;;28.67;10.25;;;19.50;99.90;;;;;;5072117;28;45359;-68
2023/07/02 03:30:40;;;;;;;23.48;9.95;;;19.40;99.90;;;;;;5071692;28;46557;-68
2023/07/02 03:33:07;;;;;;;23.35;10.18;;;19.40;99.90;;;;;;5072114;28;45412;-68
2023/07/02 03:35:33;;;;;;;25.30;10.15;;;19.40;99.90;;;;;;5064261;28;45237;-69
2023/07/02 03:38:02;;;;;;;18.80;9.82;;;19.50;99.90;;;;;;5065051;28;45555;-69
2023/07/02 03:40:28;;;;;;;30.48;10.30;;;19.30;99.60;;;;;;5072336;28;47547;-68
2023/07/02 03:42:55;;;;;;;23.20;10.77;;;19.40;99.90;;;;;;5075250;28;45242;-69
2023/07/02 03:45:22;;;;;;;22.75;10.68;;;19.40;99.90;;;;;;5074834;27;45270;-69
2023/07/02 03:47:48;;;;;;;22.83;10.77;;;19.40;99.70;;;;;;5072113;27;45558;-69
2023/07/02 03:50:15;;;;;;;28.88;10.75;;;19.30;99.90;;;;;;5073049;28;47940;-68
2023/07/02 03:52:42;;;;;;;28.30;11.25;;;19.30;99.90;;;;;;5086163;27;45490;-68
2023/07/02 03:55:11;;;;;;;24.60;10.15;;;19.40;99.90;;;;;;5081169;28;45476;-69
2023/07/02 03:57:38;;;;;;;28.05;11.32;;;19.40;99.90;;;;;;5081933;28;45222;-68
2023/07/02 04:00:06;;;;;;;28.15;11.63;;;19.40;99.70;;;;;;5078670;28;46101;-68
2023/07/02 04:02:32;;;;;;;26.30;11.80;;;19.30;99.90;;;;;;5073760;28;45456;-69
2023/07/02 04:04:59;;;;;;;31.00;11.85;;;19.40;99.90;;;;;;5073740;28;45332;-68
2023/07/02 04:07:26;;;;;;;23.83;10.80;;;19.40;99.60;;;;;;5066292;28;45249;-68
2023/07/02 04:09:53;;;;;;;29.13;11.43;;;19.20;99.90;;;;;;5066552;28;46073;-69
2023/07/02 04:12:21;;;;;;;26.50;10.88;;;19.20;99.90;;;;;;5066476;28;45389;-69
2023/07/02 04:14:47;;;;;;;25.73;10.57;;;19.30;99.90;;;;;;5072972;28;45338;-70
2023/07/02 04:17:14;;;;;;;27.10;11.27;;;19.40;99.90;;;;;;5072508;28;45416;-69
2023/07/02 04:19:41;;;;;;;25.92;11.15;;;19.50;99.70;;;;;;5073304;28;46422;-69
2023/07/02 04:22:08;;;;;;;28.33;11.35;;;19.40;99.90;;;;;;5067894;28;45207;-69
2023/07/02 04:24:34;;;;;;;24.95;10.98;;;19.40;99.90;;;;;;5063960;28;45407;-68
2023/07/02 04:27:01;;;;;;;24.95;10.93;;;19.50;99.90;;;;;;5063969;28;45346;-69
2023/07/02 04:29:29;;;;;;;24.52;11.15;;;19.40;99.90;;;;;;5073923;28;47517;-69
2023/07/02 04:31:56;;;;;;;25.23;11.88;;;19.50;99.90;;;;;;5083786;28;45496;-69
2023/07/02 04:34:22;;;;;;;27.05;12.00;;;19.60;99.90;;;;;;5077028;28;45241;-69
2023/07/02 04:36:49;;;;;;;28.65;12.30;;;19.50;99.90;;;;;;5063939;28;45421;-69
2023/07/02 04:39:16;;;;;;;24.08;10.68;;;19.40;99.90;;;;;;5062931;28;47123;-69
2023/07/02 04:41:43;;;;;;;30.33;11.82;;;19.50;99.90;;;;;;5073570;28;45363;-69
2023/07/02 04:44:10;;;;;;;24.98;11.25;;;19.50;99.90;;;;;;5076170;28;45336;-69
2023/07/02 04:46:38;;;;;;;30.52;12.20;;;19.40;99.90;;;;;;5075764;28;45549;-69
2023/07/02 04:49:05;;;;;;;29.15;11.70;;;19.40;99.90;;;;;;5075358;28;47800;-69
2023/07/02 04:51:32;;;;;;;27.27;12.30;;;19.50;99.90;;;;;;5063725;28;45369;-68
2023/07/02 04:53:59;;;;;;;24.65;11.35;;;19.50;99.90;;;;;;5072529;28;45498;-68
2023/07/02 04:56:26;;;;;;;31.08;11.88;;;19.50;99.90;;;;;;5065513;28;45271;-69
2023/07/02 04:58:53;;;;;;;25.45;11.55;;;19.40;99.90;;;;;;5068455;28;48727;-69
2023/07/02 05:01:20;;;;;;;27.58;13.25;;;19.50;99.90;;;;;;5070342;28;46231;-69
2023/07/02 05:03:48;;;;;;;25.80;12.07;;;19.50;99.90;;;;;;5064237;28;45368;-68
2023/07/02 05:06:15;;;;;;;30.33;13.18;;;19.50;99.90;;;;;;5071067;27;45518;-69
2023/07/02 05:08:41;;;;;;;28.23;12.75;;;19.50;99.90;;;;;;5069440;28;46299;-69
2023/07/02 05:11:08;;;;;;;32.30;12.18;;;19.50;99.90;;;;;;5067688;28;45287;-69
2023/07/02 05:13:35;;;;;;;29.10;11.63;;;19.60;99.90;;;;;;5069403;28;45452;-69
2023/07/02 05:16:02;;;;;;;27.50;12.00;;;19.70;99.90;;;;;;5068285;28;45440;-69
2023/07/02 05:18:29;;;;;;;29.88;12.55;;;19.70;99.90;;;;;;5079932;28;45372;-69
2023/07/02 05:20:57;;;;;;;27.00;11.45;;;19.60;99.90;;;;;;5063240;28;45368;-69
2023/07/02 05:23:23;;;;;;;28.00;12.20;;;19.70;99.90;;;;;;5081082;28;45308;-69
2023/07/02 05:25:50;;;;;;;28.45;12.02;;;19.70;99.80;;;;;;5080238;28;45337;-70
2023/07/02 05:28:17;;;;;;;32.88;12.82;;;19.60;99.90;;;;;;5076278;28;46226;-69
2023/07/02 05:30:44;;;;;;;26.05;11.38;;;19.70;99.90;;;;;;5080273;28;45390;-68
2023/07/02 05:33:11;;;;;;;27.63;12.02;;;19.70;99.90;;;;;;5072966;28;45459;-68
2023/07/02 05:35:37;;;;;;;32.15;13.82;;;19.70;99.90;;;;;;5062866;28;45337;-68
2023/07/02 05:38:05;;;;;;;28.08;12.20;;;19.60;99.90;;;;;;5064514;28;46380;-70
2023/07/02 05:40:32;;;;;;;30.92;12.70;;;19.60;99.90;;;;;;5081494;28;45430;-68
2023/07/02 05:42:59;;;;;;;26.27;11.60;;;19.70;99.90;;;;;;5067703;28;45455;-68
2023/07/02 05:45:27;;;;;;;28.42;12.75;;;19.70;99.90;;;;;;5070735;27;45371;-68
2023/07/02 05:47:54;;;;;;;31.63;12.77;;;19.80;99.80;;;;;;5068271;28;45581;-67
2023/07/02 05:50:20;;;;;;;31.13;13.18;;;19.70;99.20;;;;;;5070393;28;45411;-68
2023/07/02 05:52:47;;;;;;;27.23;12.50;;;19.70;99.80;;;;;;5062455;28;45524;-68
2023/07/02 05:55:15;;;;;;;34.97;13.23;;;19.80;99.90;;;;;;5064489;28;45535;-68
2023/07/02 05:57:42;;;;;;;33.72;12.60;;;19.80;99.70;;;;;;5068914;28;46612;-68
2023/07/02 06:00:10;;;;;;;33.95;13.48;;;19.70;99.90;;;;;;5067076;28;45814;-68
2023/07/02 06:02:37;;;;;;;30.90;12.63;;;19.80;99.90;;;;;;5063044;28;45379;-68
2023/07/02 06:05:04;;;;;;;35.35;12.95;;;19.80;99.90;;;;;;5072254;28;45562;-69
2023/07/02 06:07:31;;;;;;;31.48;13.77;;;19.80;99.60;;;;;;5075161;28;47536;-68
2023/07/02 06:09:58;;;;;;;27.23;12.48;;;19.60;99.90;;;;;;5061897;28;45369;-68
2023/07/02 06:12:26;;;;;;;33.33;12.82;;;19.50;99.90;;;;;;5073899;28;45511;-68
2023/07/02 06:14:52;;;;;;;33.05;12.82;;;19.80;99.90;;;;;;5080414;28;45404;-68
2023/07/02 06:17:20;;;;;;;30.42;13.25;;;19.80;99.70;;;;;;5073886;28;46602;-69
2023/07/02 06:19:47;;;;;;;34.20;13.30;;;19.80;99.60;;;;;;5066432;28;45349;-69
2023/07/02 06:22:14;;;;;;;30.35;13.45;;;19.80;99.90;;;;;;5069837;28;45503;-68
2023/07/02 06:24:40;;;;;;;28.27;12.95;;;19.80;99.00;;;;;;5062250;28;45615;-68
2023/07/02 06:27:07;;;;;;;32.60;13.55;;;19.70;99.90;;;;;;5065846;28;47090;-69
2023/07/02 06:29:35;;;;;;;29.60;12.45;;;19.70;99.30;;;;;;5073480;28;45511;-69
2023/07/02 06:32:02;;;;;;;30.92;13.65;;;19.70;99.10;;;;;;5075651;28;45545;-68
2023/07/02 06:34:29;;;;;;;31.73;13.40;;;19.70;99.10;;;;;;5068639;28;45521;-68
2023/07/02 06:36:55;;;;;;;32.50;12.55;;;19.60;99.40;;;;;;5068357;28;46293;-69
2023/07/02 06:39:22;;;;;;;37.10;13.95;;;19.80;99.90;;;;;;5072503;28;45354;-69
2023/07/02 06:41:49;;;;;;;35.20;13.13;;;19.80;98.30;;;;;;5068132;28;45360;-68
2023/07/02 06:44:16;;;;;;;30.10;12.70;;;19.80;99.20;;;;;;5070862;28;45344;-69
2023/07/02 06:46:46;;;;;;;26.80;12.43;;;20.00;99.40;;;;;;5074040;28;45349;-68
2023/07/02 06:49:13;;;;;;;28.55;11.73;;;20.10;98.60;;;;;;5073455;28;45346;-69
2023/07/02 06:51:41;;;;;;;29.55;12.45;;;20.10;97.30;;;;;;5062313;28;45452;-69
2023/07/02 06:54:08;;;;;;;32.03;13.55;;;20.00;97.30;;;;;;5070743;28;45405;-69
2023/07/02 06:56:35;;;;;;;27.73;11.60;;;19.90;97.50;;;;;;5078514;28;47188;-69
2023/07/02 06:59:01;;;;;;;29.92;12.05;;;19.90;97.40;;;;;;5079889;28;45465;-69
2023/07/02 07:01:28;;;;;;;27.33;10.77;;;20.00;97.60;;;;;;5073330;28;45292;-69
2023/07/02 07:03:56;;;;;;;28.15;12.45;;;19.90;96.80;;;;;;5081821;28;45703;-69
2023/07/02 07:06:23;;;;;;;33.90;10.77;;;20.00;96.80;;;;;;5072300;28;46608;-70
2023/07/02 07:08:50;;;;;;;30.83;11.63;;;20.10;96.80;;;;;;5068046;28;45380;-68
2023/07/02 07:11:17;;;;;;;30.80;11.60;;;20.00;96.80;;;;;;5067002;28;45416;-69
2023/07/02 07:13:44;;;;;;;25.65;10.05;;;20.10;96.20;;;;;;5070692;28;45395;-69
2023/07/02 07:16:11;;;;;;;33.95;11.60;;;20.10;95.90;;;;;;5061924;28;46584;-69
2023/07/02 07:18:38;;;;;;;28.25;11.23;;;20.00;94.90;;;;;;5062697;28;45439;-69
2023/07/02 07:21:06;;;;;;;27.83;10.50;;;20.00;95.40;;;;;;5073321;28;45517;-69
2023/07/02 07:23:33;;;;;;;21.58;9.98;;;20.10;94.60;;;;;;5065328;28;45421;-69
2023/07/02 07:26:00;;;;;;;30.25;11.13;;;20.00;95.60;;;;;;5075814;28;45722;-69
2023/07/02 07:28:26;;;;;;;28.75;11.05;;;20.10;94.80;;;;;;5059279;28;46486;-69
2023/07/02 07:30:53;;;;;;;31.08;13.15;;;20.20;94.80;;;;;;5064521;28;45516;-70
2023/07/02 07:33:20;;;;;;;36.13;12.18;;;20.00;95.80;;;;;;5080963;28;45309;-69
2023/07/02 07:35:47;;;;;;;30.55;12.68;;;20.00;94.60;;;;;;5073842;28;45343;-68
2023/07/02 07:38:15;;;;;;;28.55;12.10;;;20.10;95.20;;;;;;5076845;28;45366;-68
2023/07/02 07:40:44;;;;;;;30.67;11.82;;;20.10;95.80;;;;;;5070532;28;45388;-68
2023/07/02 07:43:10;;;;;;;27.75;11.75;;;20.10;95.40;;;;;;5067617;28;45460;-68
2023/07/02 07:45:38;;;;;;;26.05;10.57;;;20.20;95.50;;;;;;5067570;28;45429;-68
2023/07/02 07:48:05;;;;;;;28.80;11.18;;;20.00;93.80;;;;;;5074513;28;45473;-68
2023/07/02 07:50:32;;;;;;;26.83;11.25;;;19.90;93.60;;;;;;5070741;28;45593;-68
2023/07/02 07:53:00;;;;;;;25.27;10.30;;;19.90;93.20;;;;;;5064869;28;45574;-68
2023/07/02 07:55:28;;;;;;;27.33;10.68;;;19.90;92.00;;;;;;5073062;28;47542;-68
2023/07/02 07:57:55;;;;;;;26.05;10.77;;;20.10;91.70;;;;;;5065105;28;45277;-68
2023/07/02 08:00:24;;;;;;;30.20;11.38;;;20.10;91.90;;;;;;5063965;28;45335;-68
2023/07/02 08:02:52;;;;;;;28.00;10.23;;;20.20;91.20;;;;;;5071671;28;45545;-69
2023/07/02 08:05:18;;;;;;;28.77;10.23;;;20.20;92.10;;;;;;5068050;28;47427;-69
2023/07/02 08:07:45;;;;;;;26.83;10.57;;;20.20;92.10;;;;;;5073067;28;45391;-68
2023/07/02 08:10:12;;;;;;;28.38;11.07;;;20.20;91.90;;;;;;5070370;28;45413;-69
2023/07/02 08:12:40;;;;;;;22.40;10.57;;;20.20;92.30;;;;;;5073487;28;45377;-69
2023/07/02 08:15:08;;;;;;;25.10;11.20;;;20.40;91.50;;;;;;5065254;28;46672;-69
2023/07/02 08:17:35;;;;;;;28.80;11.20;;;20.40;90.80;;;;;;5066643;28;45472;-68
2023/07/02 08:20:04;;;;;;;32.70;10.90;;;20.30;91.00;;;;;;5077320;28;45440;-67
2023/07/02 08:22:31;;;;;;;26.60;10.77;;;20.30;90.70;;;;;;5072776;28;45276;-68
2023/07/02 08:24:57;;;;;;;28.80;11.20;;;20.30;87.90;;;;;;5072529;28;48029;-68
2023/07/02 08:27:25;;;;;;;25.02;10.55;;;20.20;89.80;;;;;;5067320;28;45480;-68
2023/07/02 08:29:53;;;;;;;26.30;11.10;;;20.20;89.60;;;;;;5081511;27;45439;-67
2023/07/02 08:32:20;;;;;;;29.00;10.68;;;20.00;89.30;;;;;;5067289;28;45568;-68
2023/07/02 08:34:47;;;;;;;26.40;10.93;;;20.10;90.50;;;;;;5075510;28;46362;-69
2023/07/02 08:37:14;;;;;;;27.52;10.60;;;20.10;88.80;;;;;;5082564;28;45479;-69
2023/07/02 08:39:41;;;;;;;27.23;10.52;;;20.20;90.70;;;;;;5065078;28;45228;-68
2023/07/02 08:42:08;;;;;;;33.28;11.77;;;20.30;91.10;;;;;;5083833;27;45581;-69
2023/07/02 08:44:36;;;;;;;29.98;11.65;;;20.40;90.70;;;;;;5064982;28;47351;-69
2023/07/02 08:47:06;;;;;;;23.25;10.27;;;20.30;90.00;;;;;;5074976;28;45349;-69
2023/07/02 08:49:33;;;;;;;25.50;11.15;;;20.40;91.50;;;;;;5061975;28;45326;-70
2023/07/02 08:52:00;;;;;;;29.02;11.85;;;20.70;90.60;;;;;;5063761;28;45447;-69
2023/07/02 08:54:26;;;;;;;32.58;12.13;;;20.70;90.00;;;;;;5063813;28;47344;-69
2023/07/02 08:56:53;;;;;;;31.73;12.35;;;20.60;90.40;;;;;;5063338;28;45369;-69
2023/07/02 08:59:20;;;;;;;25.88;11.60;;;20.50;90.60;;;;;;5071250;28;45404;-69
2023/07/02 09:01:48;;;;;;;24.80;11.00;;;20.50;90.60;;;;;;5075025;28;45326;-69
2023/07/02 09:04:20;;;;;;;34.53;12.00;;;20.50;88.60;;;;;;5067657;28;45454;-69
2023/07/02 09:06:47;;;;;;;32.63;11.05;;;20.40;87.70;;;;;;5066848;28;45466;-69
2023/07/02 09:09:14;;;;;;;33.80;10.80;;;20.00;86.60;;;;;;5079170;28;45378;-70
2023/07/02 09:11:50;;;;;;;23.98;10.00;;;19.90;89.80;;;;;;5072254;28;45536;-69
2023/07/02 09:14:27;;;;;;;26.02;10.75;;;20.00;89.20;;;;;;5067516;28;46481;-69
2023/07/02 09:17:05;;;;;;;33.33;10.55;;;20.10;90.50;;;;;;5075798;28;45382;-69
2023/07/02 09:19:34;;;;;;;28.10;10.70;;;20.40;89.90;;;;;;5062985;28;45466;-69
2023/07/02 09:22:01;;;;;;;28.90;11.48;;;20.40;89.70;;;;;;5063566;28;45529;-69
2023/07/02 09:24:29;;;;;;;27.73;11.40;;;20.30;88.50;;;;;;5077566;27;46415;-69
2023/07/02 09:26:58;;;;;;;21.45;10.23;;;20.40;90.40;;;;;;5082326;27;45468;-69
2023/07/02 09:29:28;;;;;;;26.58;11.77;;;20.40;90.40;;;;;;5073061;28;45350;-69
2023/07/02 09:31:55;;;;;;;29.30;11.07;;;20.40;90.20;;;;;;5071088;28;45350;-69
2023/07/02 09:34:28;;;;;;;30.35;11.98;;;20.30;90.40;;;;;;5071277;28;45344;-69
2023/07/02 09:36:56;;;;;;;30.60;12.27;;;20.30;90.10;;;;;;5067030;28;45334;-69
2023/07/02 09:39:27;;;;;;;28.80;11.68;;;20.30;91.40;;;;;;5062575;28;45267;-69
2023/07/02 09:41:56;;;;;;;31.50;12.15;;;20.40;90.80;;;;;;5066030;28;45285;-69
2023/07/02 09:44:25;;;;;;;33.22;12.68;;;20.40;90.40;;;;;;5066558;28;45286;-69
2023/07/02 09:47:02;;;;;;;31.38;12.65;;;20.40;90.60;;;;;;5075013;28;45274;-69
2023/07/02 09:49:32;;;;;;;31.10;13.05;;;20.50;89.40;;;;;;5072993;28;45268;-69
2023/07/02 09:52:02;;;;;;;33.25;12.27;;;20.60;89.80;;;;;;5065483;28;45396;-70
2023/07/02 09:54:29;;;;;;;36.80;12.57;;;20.50;90.20;;;;;;5065338;28;45460;-70
2023/07/02 09:56:56;;;;;;;32.35;12.63;;;20.60;89.60;;;;;;5074758;28;45258;-69
2023/07/02 09:59:23;;;;;;;29.33;12.15;;;20.70;90.50;;;;;;5065129;28;45431;-69
2023/07/02 10:01:50;;;;;;;27.27;11.95;;;20.80;89.30;;;;;;5067076;28;45381;-69
2023/07/02 10:04:19;;;;;;;31.83;13.30;;;20.90;90.10;;;;;;5066560;28;46594;-69
2023/07/02 10:06:51;;;;;;;29.35;11.63;;;20.90;86.70;;;;;;5073857;28;45372;-69
2023/07/02 10:09:19;;;;;;;32.28;12.10;;;20.70;87.00;;;;;;5061745;28;45388;-69
2023/07/02 10:11:46;;;;;;;24.92;11.70;;;20.70;86.60;;;;;;5067179;28;45495;-69
2023/07/02 10:14:13;;;;;;;26.25;10.52;;;20.60;84.90;;;;;;5073604;28;47545;-69
2023/07/02 10:16:50;;;;;;;28.40;10.90;;;20.50;84.30;;;;;;5062604;28;45253;-69
2023/07/02 10:19:17;;;;;;;33.58;12.15;;;20.50;85.70;;;;;;5070419;28;45414;-69
2023/07/02 10:21:46;;;;;;;32.00;10.77;;;20.60;83.80;;;;;;5065694;28;45600;-70
2023/07/02 10:24:14;;;;;;;31.88;11.73;;;20.50;84.30;;;;;;5074169;28;47358;-69
2023/07/02 10:26:54;;;;;;;29.95;9.68;;;20.50;82.90;;;;;;5069636;28;45351;-69
2023/07/02 10:29:21;;;;;;;26.15;8.45;;;20.40;90.20;;;;;;5064210;27;45305;-70
2023/07/02 10:31:51;;;;;;;17.95;7.43;;;19.80;93.00;;;;;;5062441;28;45319;-70
2023/07/02 10:34:28;;;;;;;18.08;7.45;;;19.50;92.30;;;;;;5078097;28;46585;-69
2023/07/02 10:36:55;;;;;;;18.30;7.72;;;19.60;91.50;;;;;;5062162;28;45346;-70
2023/07/02 10:39:22;;;;;;;23.83;8.68;;;19.80;88.60;;;;;;5061699;28;45334;-69
2023/07/02 10:41:49;;;;;;;27.58;8.48;;;19.80;87.10;;;;;;5072065;28;45367;-70
2023/07/02 10:44:17;;;;;;;23.70;8.50;;;20.00;89.00;;;;;;5074010;28;45263;-69
2023/07/02 10:46:45;;;;;;;15.75;7.05;;;20.10;87.10;;;;;;5061761;28;45229;-69
2023/07/02 10:49:12;;;;;;;22.13;7.47;;;20.40;87.80;;;;;;5077018;28;45334;-69
2023/07/02 10:51:39;;;;;;;24.50;9.45;;;20.40;86.40;;;;;;5063083;28;45304;-69
2023/07/02 10:54:06;;;;;;;27.15;8.90;;;20.40;82.60;;;;;;5062010;28;47333;-69
2023/07/02 10:56:33;;;;;;;24.33;10.07;;;20.30;83.50;;;;;;5061552;28;45458;-69
2023/07/02 10:59:00;;;;;;;24.60;9.18;;;20.30;83.00;;;;;;5064448;28;45582;-69
2023/07/02 11:01:29;;;;;;;22.23;9.18;;;20.30;83.50;;;;;;5064646;28;45401;-70
2023/07/02 11:03:59;;;;;;;25.08;9.10;;;20.40;85.00;;;;;;5062750;28;46597;-69
2023/07/02 11:06:27;;;;;;;24.25;8.68;;;20.30;81.50;;;;;;5065273;28;45417;-70
2023/07/02 11:08:54;;;;;;;23.42;8.15;;;20.20;81.10;;;;;;5073615;28;45381;-69
2023/07/02 11:11:21;;;;;;;22.15;8.30;;;20.30;81.00;;;;;;5074236;28;45422;-69
2023/07/02 11:13:50;;;;;;;24.60;7.97;;;20.40;83.00;;;;;;5069988;28;47555;-69
2023/07/02 11:16:25;;;;;;;20.45;8.00;;;20.50;81.60;;;;;;5083904;28;45372;-69
2023/07/02 11:18:54;;;;;;;16.40;6.45;;;20.40;77.30;;;;;;5066312;28;45309;-69
2023/07/02 11:21:21;;;;;;;18.13;7.53;;;20.50;80.70;;;;;;5065534;28;45367;-69
2023/07/02 11:23:48;;;;;;;20.70;7.85;;;20.50;76.60;;;;;;5073475;28;46439;-69
2023/07/02 11:26:15;;;;;;;20.48;8.02;;;20.50;77.10;;;;;;5064289;28;45300;-69
2023/07/02 11:28:52;;;;;;;22.77;9.27;;;20.50;76.30;;;;;;5070137;28;45410;-69
2023/07/02 11:31:28;;;;;;;20.48;6.90;;;20.50;74.20;;;;;;5064779;28;45583;-69
2023/07/02 11:33:56;;;;;;;24.13;7.13;;;20.50;76.70;;;;;;5065071;28;45272;-69
2023/07/02 11:36:25;;;;;;;18.05;6.55;;;20.70;78.90;;;;;;5072721;28;45394;-70
2023/07/02 11:38:52;;;;;;;24.90;8.18;;;20.90;78.50;;;;;;5064766;28;45502;-69
2023/07/02 11:41:20;;;;;;;20.83;7.50;;;20.90;76.10;;;;;;5081139;28;45751;-69
2023/07/02 11:43:47;;;;;;;26.48;7.45;;;21.00;75.40;;;;;;5063553;28;48050;-69
2023/07/02 11:46:15;;;;;;;22.00;7.35;;;20.90;74.70;;;;;;5064708;28;45392;-69
2023/07/02 11:48:42;;;;;;;19.05;5.93;;;20.90;70.10;;;;;;5068239;28;45369;-69
2023/07/02 11:51:10;;;;;;;18.80;7.03;;;20.80;67.50;;;;;;5072979;28;45567;-70
2023/07/02 11:53:37;;;;;;;19.35;6.30;;;20.70;71.60;;;;;;5066987;28;48717;-69
2023/07/02 11:56:03;;;;;;;18.08;6.40;;;20.80;70.30;;;;;;5076936;28;45227;-69
2023/07/02 11:58:30;;;;;;;23.63;6.10;;;20.90;71.70;;;;;;5067553;28;45365;-70
2023/07/02 12:00:57;;;;;;;16.63;6.00;;;20.90;66.60;;;;;;5079876;28;45274;-70
2023/07/02 12:03:24;;;;;;;15.77;6.03;;;20.90;64.90;;;;;;5072904;28;47633;-69
2023/07/02 12:05:51;;;;;;;22.35;6.75;;;20.90;67.00;;;;;;5074226;28;45544;-69
2023/07/02 12:08:19;;;;;;;20.73;6.03;;;21.00;64.90;;;;;;5068740;28;45298;-69
2023/07/02 12:10:46;;;;;;;14.88;5.93;;;21.00;65.20;;;;;;5068898;28;45463;-69
2023/07/02 12:13:13;;;;;;;15.15;6.22;;;21.00;68.20;;;;;;5072922;28;45487;-68
2023/07/02 12:15:39;;;;;;;18.73;6.55;;;21.20;71.50;;;;;;5074850;27;45662;-69
2023/07/02 12:18:06;;;;;;;14.40;6.22;;;21.20;68.50;;;;;;5078920;28;45408;-69
2023/07/02 12:20:33;;;;;;;23.90;6.40;;;21.40;68.60;;;;;;5078796;28;45470;-69
2023/07/02 12:23:00;;;;;;;14.90;5.97;;;21.30;63.20;;;;;;5064254;28;46662;-69
2023/07/02 12:25:28;;;;;;;14.88;6.43;;;21.20;65.40;;;;;;5072117;28;45282;-69
2023/07/02 12:27:55;;;;;;;16.70;5.88;;;21.10;63.40;;;;;;5072900;27;45340;-70
2023/07/02 12:30:22;;;;;;;17.38;5.65;;;21.10;66.40;;;;;;5071650;28;45605;-69
2023/07/02 12:32:49;;;;;;;17.50;5.50;;;21.00;64.20;;;;;;5074631;28;46083;-69